This is the latest recevied weather packets stored in our database for station/object SP8C-13. If no packets are shown the sender has not sent any weather packets the latest 10 day(s).
| Time | Temp. | Humidity | Pressure | Rain* | Wind** | Luminosity | Snow |
|---|---|---|---|---|---|---|---|
| 1777139011 | 15.56° C | 42% | 1007.2 hPa | - | - | - | - |
| 1777137211 | 16.67° C | 45% | 1007.3 hPa | - | - | - | - |
| 1777135411 | 17.78° C | 42% | 1007.3 hPa | - | - | - | - |
| 1777133611 | 17.78° C | 42% | 1007.6 hPa | - | - | - | - |
| 1777131811 | 18.33° C | 42% | 1007.9 hPa | - | - | - | - |
| 1777130010 | 18.33° C | 42% | 1008 hPa | - | - | - | - |
| 1777128210 | 18.89° C | 42% | 1008.3 hPa | - | - | - | - |
| 1777126410 | 18.89° C | 43% | 1008.5 hPa | - | - | - | - |
| 1777124610 | 18.89° C | 45% | 1008.7 hPa | - | - | - | - |
| 1777122810 | 18.33° C | 46% | 1009 hPa | - | - | - | - |
| 1777121010 | 18.89° C | 46% | 1009.5 hPa | - | - | - | - |
| 1777119209 | 18.33° C | 47% | 1009.9 hPa | - | - | - | - |
| 1777117409 | 18.33° C | 48% | 1010.3 hPa | - | - | - | - |
| 1777115609 | 17.22° C | 50% | 1010.7 hPa | - | - | - | - |
| 1777113809 | 18.33° C | 49% | 1011.1 hPa | - | - | - | - |
| 1777112009 | 16.67° C | 51% | 1011.1 hPa | - | - | - | - |
| 1777110209 | 16.67° C | 51% | 1011.3 hPa | - | - | - | - |
| 1777108409 | 16.67° C | 51% | 1011.5 hPa | - | - | - | - |
| 1777106608 | 16.11° C | 53% | 1011.8 hPa | - | - | - | - |
| 1777104808 | 15° C | 55% | 1012.1 hPa | - | - | - | - |
| 1777103008 | 14.44° C | 58% | 1012.3 hPa | - | - | - | - |
| 1777100844 | 13.33° C | 60% | 1012.5 hPa | - | - | - | - |
| 1777099044 | 10.56° C | 64% | 1012.4 hPa | - | - | - | - |
| 1777097243 | 8.89° C | 70% | 1012.6 hPa | - | - | - | - |
| 1777095443 | 7.22° C | 78% | 1012.7 hPa | - | - | - | - |
* Rain since midnight (hover to see other rain measurements)
** Current wind speed in m/s (hover to see current wind gust speed)